createdAt,value
2019-06-20T00:00:10.057Z,23.44
2019-06-20T00:00:49.420Z,23.30
2019-06-20T00:01:26.122Z,23.20
2019-06-20T00:02:02.194Z,23.22
2019-06-20T00:02:38.840Z,23.24
2019-06-20T00:03:15.749Z,23.19
2019-06-20T00:03:52.093Z,23.02
2019-06-20T00:04:29.275Z,22.96
2019-06-20T00:05:07.752Z,22.87
2019-06-20T00:05:43.982Z,22.68
2019-06-20T00:06:20.934Z,22.55
2019-06-20T00:06:57.666Z,22.38
2019-06-20T00:07:34.148Z,22.41
2019-06-20T00:08:11.032Z,22.33
2019-06-20T00:08:48.090Z,22.32
2019-06-20T00:09:24.170Z,21.82
2019-06-20T00:10:01.030Z,21.37
2019-06-20T00:10:37.645Z,21.13
2019-06-20T00:11:13.710Z,20.98
2019-06-20T00:11:50.651Z,20.64
2019-06-20T00:12:27.488Z,20.51
2019-06-20T00:13:03.668Z,20.38
2019-06-20T00:13:41.053Z,20.33
2019-06-20T00:14:18.745Z,20.25
2019-06-20T00:14:54.913Z,20.19
2019-06-20T00:15:31.861Z,20.20
2019-06-20T00:16:08.485Z,20.08
2019-06-20T00:16:44.636Z,20.12
2019-06-20T00:17:21.222Z,20.09
2019-06-20T00:17:59.326Z,19.94
2019-06-20T00:18:35.362Z,20.02
2019-06-20T00:19:12.075Z,20.00
2019-06-20T00:19:49.123Z,19.89
2019-06-20T00:20:25.485Z,19.82
2019-06-20T00:21:02.152Z,19.77
2019-06-20T00:21:38.791Z,19.68
2019-06-20T00:22:14.837Z,19.63
2019-06-20T00:22:51.945Z,19.62
2019-06-20T00:23:29.023Z,19.51
2019-06-20T00:24:05.063Z,19.46
2019-06-20T00:24:41.738Z,19.32
2019-06-20T00:25:18.722Z,19.28
2019-06-20T00:25:54.883Z,19.41
2019-06-20T00:26:32.368Z,19.29
2019-06-20T00:27:09.018Z,19.26
2019-06-20T00:27:45.165Z,19.24
2019-06-20T00:28:21.819Z,19.24
2019-06-20T00:28:58.808Z,19.25
2019-06-20T00:29:35.202Z,19.29
2019-06-20T00:30:12.335Z,19.22
2019-06-20T00:30:49.068Z,19.18
2019-06-20T00:31:25.207Z,19.19
2019-06-20T00:32:01.883Z,19.22
2019-06-20T00:32:38.527Z,19.13
2019-06-20T00:33:14.576Z,19.17
2019-06-20T00:33:51.547Z,19.26
2019-06-20T00:34:28.197Z,19.16
2019-06-20T00:35:04.355Z,19.04
2019-06-20T00:35:41.033Z,19.09
2019-06-20T00:36:18.013Z,19.05
2019-06-20T00:36:54.073Z,19.01
2019-06-20T00:37:31.132Z,18.95
2019-06-20T00:38:07.767Z,18.89
2019-06-20T00:38:43.800Z,18.86
2019-06-20T00:39:20.433Z,18.85
2019-06-20T00:39:57.501Z,18.85
2019-06-20T00:40:33.603Z,18.90
2019-06-20T00:41:10.249Z,18.96
2019-06-20T00:41:46.879Z,18.88
2019-06-20T00:42:23.338Z,18.84
2019-06-20T00:43:13.432Z,18.87
2019-06-20T00:43:38.350Z,18.84
2019-06-20T00:44:14.515Z,18.91
2019-06-20T00:44:51.126Z,19.04
2019-06-20T00:45:28.246Z,19.00
2019-06-20T00:46:04.289Z,19.09
2019-06-20T00:46:41.299Z,19.14
2019-06-20T00:47:17.940Z,19.06
2019-06-20T00:47:54.369Z,19.08
2019-06-20T00:48:31.032Z,19.07
2019-06-20T00:49:07.694Z,19.17
2019-06-20T00:49:43.826Z,19.20
2019-06-20T00:50:20.458Z,19.20
2019-06-20T00:50:57.255Z,19.30
2019-06-20T00:51:33.332Z,19.32
2019-06-20T00:52:10.290Z,19.22
2019-06-20T00:52:46.972Z,19.08
2019-06-20T00:53:23.050Z,19.12
2019-06-20T00:53:59.736Z,19.00
2019-06-20T00:54:36.379Z,19.07
2019-06-20T00:55:12.923Z,19.04
2019-06-20T00:55:49.815Z,19.04
2019-06-20T00:56:26.700Z,19.03
2019-06-20T00:57:03.108Z,19.04
2019-06-20T00:57:39.734Z,19.01
2019-06-20T00:58:16.372Z,19.10
2019-06-20T00:58:52.800Z,19.07
2019-06-20T00:59:29.728Z,19.12
2019-06-20T01:00:07.497Z,19.20
2019-06-20T01:00:43.640Z,19.26
2019-06-20T01:01:20.282Z,19.33
2019-06-20T01:01:57.330Z,19.34
2019-06-20T01:02:33.768Z,19.32
2019-06-20T01:03:10.403Z,19.27
2019-06-20T01:03:47.022Z,19.43
2019-06-20T01:04:23.066Z,19.55
2019-06-20T01:04:59.794Z,19.56
2019-06-20T01:05:36.798Z,19.53
2019-06-20T01:06:13.110Z,19.60
2019-06-20T01:06:50.115Z,19.56
2019-06-20T01:07:27.575Z,19.50
2019-06-20T01:08:03.673Z,19.50
2019-06-20T01:08:40.312Z,19.45
2019-06-20T01:09:17.361Z,19.38
2019-06-20T01:09:54.165Z,19.44
2019-06-20T01:10:30.872Z,19.50
2019-06-20T01:11:07.484Z,19.73
2019-06-20T01:11:43.799Z,19.87
2019-06-20T01:12:20.771Z,19.88
2019-06-20T01:12:57.769Z,19.80
2019-06-20T01:13:34.592Z,19.68
2019-06-20T01:14:11.360Z,19.59
2019-06-20T01:14:48.461Z,19.60
2019-06-20T01:15:24.746Z,19.60
2019-06-20T01:16:01.532Z,19.68
2019-06-20T01:16:38.852Z,19.76
2019-06-20T01:17:14.995Z,19.79
2019-06-20T01:17:52.000Z,19.83
2019-06-20T01:18:28.689Z,19.79
2019-06-20T01:19:05.144Z,19.73
2019-06-20T01:19:42.050Z,19.70
2019-06-20T01:20:19.788Z,19.61
2019-06-20T01:20:57.014Z,19.54
2019-06-20T01:21:34.107Z,19.54
2019-06-20T01:22:10.732Z,19.53
2019-06-20T01:22:46.784Z,19.49
2019-06-20T01:23:23.605Z,19.57
2019-06-20T01:24:00.264Z,19.61
2019-06-20T01:24:36.602Z,19.64
2019-06-20T01:25:13.814Z,19.64
2019-06-20T01:25:50.940Z,19.48
2019-06-20T01:26:28.079Z,19.45
2019-06-20T01:27:05.298Z,19.37
2019-06-20T01:27:42.382Z,19.29
2019-06-20T01:28:18.564Z,19.25
2019-06-20T01:28:55.218Z,19.26
2019-06-20T01:29:32.276Z,19.37
2019-06-20T01:30:09.357Z,19.31
2019-06-20T01:30:46.295Z,19.28
2019-06-20T01:31:23.280Z,19.17
2019-06-20T01:31:59.702Z,18.97
2019-06-20T01:32:36.326Z,18.97
2019-06-20T01:33:13.451Z,18.93
2019-06-20T01:33:49.887Z,18.79
2019-06-20T01:34:26.817Z,18.85
2019-06-20T01:35:03.474Z,18.71
2019-06-20T01:35:39.525Z,18.82
2019-06-20T01:36:16.179Z,18.76
2019-06-20T01:36:53.225Z,18.80
2019-06-20T01:37:29.736Z,18.77
2019-06-20T01:38:06.897Z,18.75
2019-06-20T01:38:43.845Z,18.71
2019-06-20T01:39:19.914Z,18.62
2019-06-20T01:39:56.885Z,18.56
2019-06-20T01:40:33.826Z,18.52
2019-06-20T01:41:09.885Z,18.63
2019-06-20T01:41:47.223Z,18.61
2019-06-20T01:42:24.004Z,18.56
2019-06-20T01:43:00.696Z,18.45
2019-06-20T01:43:50.067Z,18.40
2019-06-20T01:44:15.952Z,18.35
2019-06-20T01:44:51.980Z,18.41
2019-06-20T01:45:28.663Z,18.42
2019-06-20T01:46:05.294Z,18.37
2019-06-20T01:46:41.335Z,18.33
2019-06-20T01:47:17.982Z,18.45
2019-06-20T01:47:54.637Z,18.53
2019-06-20T01:48:31.250Z,18.47
2019-06-20T01:49:07.984Z,18.50
2019-06-20T01:49:44.616Z,18.49
2019-06-20T01:50:21.368Z,18.42
2019-06-20T01:50:58.738Z,18.46
2019-06-20T01:51:35.356Z,18.47
2019-06-20T01:52:11.756Z,18.49
2019-06-20T01:52:49.404Z,18.51
2019-06-20T01:53:26.148Z,18.43
2019-06-20T01:54:02.235Z,18.51
2019-06-20T01:54:38.869Z,18.51
2019-06-20T01:55:15.955Z,18.53
2019-06-20T01:55:53.089Z,18.46
2019-06-20T01:56:29.867Z,18.56
2019-06-20T01:57:06.482Z,18.40
2019-06-20T01:57:42.512Z,18.32
2019-06-20T01:58:19.585Z,18.30
2019-06-20T01:58:56.298Z,18.43
2019-06-20T01:59:32.731Z,18.36
2019-06-20T02:00:09.962Z,18.30
2019-06-20T02:00:50.838Z,18.35
2019-06-20T02:01:27.081Z,18.31
2019-06-20T02:02:03.942Z,18.40
2019-06-20T02:02:40.586Z,18.41
2019-06-20T02:03:16.998Z,18.39
2019-06-20T02:03:53.990Z,18.30
2019-06-20T02:04:31.047Z,18.27
2019-06-20T02:05:07.817Z,18.32
2019-06-20T02:05:45.063Z,18.29
2019-06-20T02:06:21.672Z,18.43
2019-06-20T02:06:57.786Z,18.47
2019-06-20T02:07:34.420Z,18.31
2019-06-20T02:08:11.142Z,18.38
2019-06-20T02:08:47.476Z,18.41
2019-06-20T02:09:24.257Z,18.40
2019-06-20T02:10:00.914Z,18.38
2019-06-20T02:10:37.324Z,18.30
2019-06-20T02:11:14.714Z,18.26
2019-06-20T02:11:51.998Z,18.39
2019-06-20T02:12:28.125Z,18.43
2019-06-20T02:13:05.471Z,18.38
2019-06-20T02:13:42.119Z,18.27
2019-06-20T02:14:18.565Z,18.36
2019-06-20T02:14:55.215Z,18.34
2019-06-20T02:15:31.849Z,18.32
2019-06-20T02:16:07.946Z,18.35
2019-06-20T02:16:44.515Z,18.39
2019-06-20T02:17:21.146Z,18.35
2019-06-20T02:17:57.317Z,18.35
2019-06-20T02:18:34.370Z,18.31
2019-06-20T02:19:10.988Z,18.26
2019-06-20T02:19:47.384Z,18.31
2019-06-20T02:20:32.279Z,18.25
2019-06-20T02:21:09.609Z,18.25
2019-06-20T02:21:45.637Z,18.23
2019-06-20T02:22:22.318Z,18.21
2019-06-20T02:22:58.990Z,18.22
2019-06-20T02:23:35.020Z,18.14
2019-06-20T02:24:11.638Z,18.15
2019-06-20T02:24:48.267Z,18.12
2019-06-20T02:25:24.667Z,18.17
2019-06-20T02:26:01.725Z,18.12
2019-06-20T02:26:38.370Z,18.15
2019-06-20T02:27:14.546Z,18.22
2019-06-20T02:27:51.174Z,18.20
2019-06-20T02:28:28.234Z,18.14
2019-06-20T02:29:04.496Z,18.15
2019-06-20T02:29:41.132Z,18.20
2019-06-20T02:30:17.972Z,18.18
2019-06-20T02:30:54.409Z,18.18
2019-06-20T02:31:31.067Z,18.35
2019-06-20T02:32:08.225Z,18.39
2019-06-20T02:32:44.370Z,18.33
2019-06-20T02:33:21.478Z,18.39
2019-06-20T02:33:58.241Z,18.32
2019-06-20T02:34:34.623Z,18.29
2019-06-20T02:35:11.662Z,18.24
2019-06-20T02:35:48.300Z,18.23
2019-06-20T02:36:24.365Z,18.14
2019-06-20T02:37:01.009Z,18.21
2019-06-20T02:37:38.011Z,18.22
2019-06-20T02:38:14.036Z,18.22
2019-06-20T02:38:50.665Z,18.25
2019-06-20T02:39:28.072Z,18.31
2019-06-20T02:40:04.825Z,18.37
2019-06-20T02:40:41.896Z,18.40
2019-06-20T02:41:18.540Z,18.37
2019-06-20T02:41:54.922Z,18.34
2019-06-20T02:42:31.963Z,18.21
2019-06-20T02:43:08.705Z,18.24
2019-06-20T02:43:45.509Z,18.27
2019-06-20T02:44:29.933Z,18.22
2019-06-20T02:45:00.846Z,18.35
2019-06-20T02:45:38.139Z,18.25
2019-06-20T02:46:15.063Z,18.24
2019-06-20T02:46:51.745Z,18.22
2019-06-20T02:47:28.579Z,18.24
2019-06-20T02:48:05.951Z,18.19
2019-06-20T02:48:42.612Z,18.19
2019-06-20T02:49:18.994Z,18.17
2019-06-20T02:49:55.638Z,18.11
2019-06-20T02:50:32.604Z,18.23
2019-06-20T02:51:08.957Z,18.19
2019-06-20T02:51:46.067Z,18.15
2019-06-20T02:52:23.216Z,18.17
2019-06-20T02:52:59.422Z,18.27
2019-06-20T02:53:37.033Z,18.20
2019-06-20T02:54:13.642Z,18.18
2019-06-20T02:54:49.723Z,18.26
2019-06-20T02:55:26.404Z,18.13
2019-06-20T02:56:03.051Z,18.13
2019-06-20T02:56:39.938Z,18.13
2019-06-20T02:57:16.912Z,18.17
2019-06-20T02:57:54.219Z,18.14
2019-06-20T02:58:31.030Z,18.13
2019-06-20T02:59:08.073Z,18.01
2019-06-20T02:59:44.792Z,17.95
2019-06-20T03:00:34.160Z,17.95
2019-06-20T03:01:11.115Z,17.98
2019-06-20T03:01:48.086Z,18.00
2019-06-20T03:02:24.159Z,17.94
2019-06-20T03:03:00.821Z,18.03
2019-06-20T03:03:37.467Z,18.13
2019-06-20T03:04:13.854Z,18.16
2019-06-20T03:04:50.484Z,18.10
2019-06-20T03:05:27.140Z,18.13
2019-06-20T03:06:03.174Z,18.08
2019-06-20T03:06:40.581Z,18.00
2019-06-20T03:07:17.356Z,18.04
2019-06-20T03:07:53.568Z,18.03
2019-06-20T03:08:30.421Z,18.02
2019-06-20T03:09:09.001Z,18.04
2019-06-20T03:09:45.134Z,17.93
2019-06-20T03:10:22.195Z,17.96
2019-06-20T03:10:59.171Z,18.01
2019-06-20T03:11:35.654Z,17.94
2019-06-20T03:12:12.584Z,17.99
2019-06-20T03:12:49.691Z,18.05
2019-06-20T03:13:26.079Z,18.10
2019-06-20T03:14:02.812Z,18.05
2019-06-20T03:14:45.411Z,17.99
2019-06-20T03:15:17.280Z,17.97
2019-06-20T03:15:53.912Z,18.06
2019-06-20T03:16:31.095Z,18.07
2019-06-20T03:17:07.119Z,18.05
2019-06-20T03:17:43.763Z,18.11
2019-06-20T03:18:20.483Z,18.15
2019-06-20T03:18:56.638Z,18.17
2019-06-20T03:19:33.350Z,18.04
2019-06-20T03:20:11.682Z,18.02
2019-06-20T03:20:47.735Z,18.10
2019-06-20T03:21:24.497Z,18.20
2019-06-20T03:22:01.954Z,18.22
2019-06-20T03:22:37.999Z,18.14
2019-06-20T03:23:14.715Z,18.06
2019-06-20T03:23:51.626Z,18.01
2019-06-20T03:24:27.759Z,18.00
2019-06-20T03:25:04.543Z,18.06
2019-06-20T03:25:41.310Z,18.01
2019-06-20T03:26:17.345Z,18.03
2019-06-20T03:26:54.762Z,18.05
2019-06-20T03:27:31.437Z,17.99
2019-06-20T03:28:07.473Z,17.97
2019-06-20T03:28:44.947Z,18.01
2019-06-20T03:29:22.062Z,18.15
2019-06-20T03:29:58.518Z,18.16
2019-06-20T03:30:35.540Z,18.11
2019-06-20T03:31:12.176Z,18.05
2019-06-20T03:31:48.227Z,18.14
2019-06-20T03:32:24.883Z,18.21
2019-06-20T03:33:01.912Z,18.14
2019-06-20T03:33:37.922Z,18.11
2019-06-20T03:34:14.613Z,18.15
2019-06-20T03:34:51.993Z,18.15
2019-06-20T03:35:28.065Z,18.14
2019-06-20T03:36:04.712Z,18.14
2019-06-20T03:36:41.410Z,18.18
2019-06-20T03:37:17.463Z,18.13
2019-06-20T03:37:54.106Z,18.08
2019-06-20T03:38:30.779Z,18.15
2019-06-20T03:39:08.020Z,18.16
2019-06-20T03:39:44.665Z,18.15
2019-06-20T03:40:21.424Z,18.10
2019-06-20T03:40:57.520Z,18.07
2019-06-20T03:41:34.180Z,18.13
2019-06-20T03:42:11.141Z,18.10
2019-06-20T03:42:47.175Z,18.25
2019-06-20T03:43:23.876Z,18.25
2019-06-20T03:44:01.194Z,18.11
2019-06-20T03:44:37.290Z,18.08
2019-06-20T03:45:14.307Z,18.06
2019-06-20T03:45:50.940Z,18.15
2019-06-20T03:46:27.341Z,18.18
2019-06-20T03:47:04.318Z,18.14
2019-06-20T03:47:41.392Z,18.27
2019-06-20T03:48:18.180Z,18.19
2019-06-20T03:48:55.320Z,18.20
2019-06-20T03:49:32.462Z,18.21
2019-06-20T03:50:09.040Z,18.22
2019-06-20T03:50:45.678Z,18.32
2019-06-20T03:51:22.600Z,18.37
2019-06-20T03:51:58.773Z,18.35
2019-06-20T03:52:36.221Z,18.38
2019-06-20T03:53:12.850Z,18.37
2019-06-20T03:53:48.901Z,18.39
2019-06-20T03:54:25.895Z,18.40
2019-06-20T03:55:02.655Z,18.45
2019-06-20T03:55:38.716Z,18.51
2019-06-20T03:56:16.740Z,18.44
2019-06-20T03:56:53.411Z,18.47
2019-06-20T03:57:29.491Z,18.41
2019-06-20T03:58:06.615Z,18.49
2019-06-20T03:58:43.226Z,18.44
2019-06-20T03:59:19.409Z,18.44
2019-06-20T03:59:56.925Z,18.40
2019-06-20T04:00:35.514Z,18.46
2019-06-20T04:01:11.841Z,18.49
2019-06-20T04:01:49.307Z,18.59
2019-06-20T04:02:26.652Z,18.50
2019-06-20T04:03:03.478Z,18.47
2019-06-20T04:03:40.507Z,18.54
2019-06-20T04:04:17.201Z,18.60
2019-06-20T04:04:54.262Z,18.64
2019-06-20T04:05:30.886Z,18.56
2019-06-20T04:06:07.798Z,18.60
2019-06-20T04:06:44.255Z,18.58
2019-06-20T04:07:20.897Z,18.66
2019-06-20T04:07:58.039Z,18.69
2019-06-20T04:08:34.164Z,18.78
2019-06-20T04:09:11.140Z,18.75
2019-06-20T04:09:48.089Z,18.76
2019-06-20T04:10:24.159Z,18.79
2019-06-20T04:11:00.900Z,18.78
2019-06-20T04:11:37.566Z,18.83
2019-06-20T04:12:13.629Z,18.75
2019-06-20T04:12:50.610Z,18.69
2019-06-20T04:13:27.792Z,18.69
2019-06-20T04:14:03.875Z,18.70
2019-06-20T04:14:40.771Z,18.59
2019-06-20T04:15:19.684Z,18.61
2019-06-20T04:15:55.868Z,18.76
2019-06-20T04:16:32.529Z,18.76
2019-06-20T04:17:09.151Z,18.76
2019-06-20T04:17:45.934Z,18.75
2019-06-20T04:18:22.537Z,18.79
2019-06-20T04:18:59.198Z,18.73
2019-06-20T04:19:35.296Z,18.68
2019-06-20T04:20:12.028Z,18.66
2019-06-20T04:20:48.903Z,18.58
2019-06-20T04:21:25.724Z,18.61
2019-06-20T04:22:02.377Z,18.60
2019-06-20T04:22:39.023Z,18.58
2019-06-20T04:23:15.070Z,18.53
2019-06-20T04:23:51.705Z,18.53
2019-06-20T04:24:28.401Z,18.53
2019-06-20T04:25:04.504Z,18.49
2019-06-20T04:25:41.137Z,18.51
2019-06-20T04:26:17.767Z,18.46
2019-06-20T04:26:54.187Z,18.51
2019-06-20T04:27:30.930Z,18.52
2019-06-20T04:28:07.871Z,18.56
2019-06-20T04:28:43.901Z,18.60
2019-06-20T04:29:20.957Z,18.53
2019-06-20T04:29:57.980Z,18.56
2019-06-20T04:30:34.351Z,18.65
2019-06-20T04:31:11.292Z,18.57
2019-06-20T04:31:48.558Z,18.64
2019-06-20T04:32:24.725Z,18.65
2019-06-20T04:33:01.376Z,18.73
2019-06-20T04:33:38.001Z,18.65
2019-06-20T04:34:14.389Z,18.71
2019-06-20T04:34:51.362Z,18.59
2019-06-20T04:35:28.329Z,18.57
2019-06-20T04:36:04.390Z,18.71
2019-06-20T04:36:41.026Z,18.64
2019-06-20T04:37:17.650Z,18.68
2019-06-20T04:37:53.711Z,18.75
2019-06-20T04:38:30.384Z,18.76
2019-06-20T04:39:18.788Z,18.72
2019-06-20T04:39:45.739Z,18.77
2019-06-20T04:40:23.808Z,18.82
2019-06-20T04:41:00.489Z,18.89
2019-06-20T04:41:36.654Z,18.89
2019-06-20T04:42:13.275Z,18.92
2019-06-20T04:42:50.611Z,18.82
2019-06-20T04:43:27.411Z,18.83
2019-06-20T04:44:04.071Z,18.80
2019-06-20T04:44:40.813Z,18.84
2019-06-20T04:45:35.591Z,18.85
2019-06-20T04:46:16.785Z,18.87
2019-06-20T04:46:59.004Z,18.73
2019-06-20T04:47:35.389Z,18.77
2019-06-20T04:48:12.709Z,18.85
2019-06-20T04:48:49.680Z,18.88
2019-06-20T04:49:26.401Z,18.98
2019-06-20T04:50:03.595Z,18.96
2019-06-20T04:50:40.347Z,18.90
2019-06-20T04:51:16.673Z,19.08
2019-06-20T04:51:53.662Z,19.05
2019-06-20T04:52:30.256Z,19.06
2019-06-20T04:53:06.327Z,19.09
2019-06-20T04:53:42.961Z,19.13
2019-06-20T04:54:19.754Z,19.08
2019-06-20T04:54:55.901Z,19.02
2019-06-20T04:55:32.984Z,19.10
2019-06-20T04:56:09.599Z,19.16
2019-06-20T04:56:45.623Z,19.16
2019-06-20T04:57:22.248Z,19.08
2019-06-20T04:57:59.250Z,19.04
2019-06-20T04:58:35.351Z,19.02
2019-06-20T04:59:12.393Z,19.06
2019-06-20T04:59:51.485Z,19.06
2019-06-20T05:00:28.077Z,19.01
2019-06-20T05:01:04.726Z,19.08
2019-06-20T05:01:41.774Z,19.05
2019-06-20T05:02:19.757Z,19.09
2019-06-20T05:02:56.420Z,19.15
2019-06-20T05:03:33.155Z,19.29
2019-06-20T05:04:10.094Z,19.39
2019-06-20T05:04:46.812Z,19.29
2019-06-20T05:05:23.638Z,19.23
2019-06-20T05:06:00.984Z,19.30
2019-06-20T05:06:37.077Z,19.32
2019-06-20T05:07:19.932Z,19.36
2019-06-20T05:07:57.075Z,19.31
2019-06-20T05:08:33.431Z,19.25
2019-06-20T05:09:10.109Z,19.27
2019-06-20T05:09:46.765Z,19.31
2019-06-20T05:10:22.834Z,19.32
2019-06-20T05:10:59.778Z,19.37
2019-06-20T05:11:36.762Z,19.33
2019-06-20T05:12:12.788Z,19.25
2019-06-20T05:12:49.451Z,19.30
2019-06-20T05:13:26.094Z,19.35
2019-06-20T05:14:02.791Z,19.21
2019-06-20T05:14:40.004Z,19.23
2019-06-20T05:15:16.737Z,19.18
2019-06-20T05:15:53.459Z,19.30
2019-06-20T05:16:30.322Z,19.43
2019-06-20T05:17:07.404Z,19.41
2019-06-20T05:17:43.525Z,19.42
2019-06-20T05:18:20.448Z,19.50
2019-06-20T05:18:57.428Z,19.50
2019-06-20T05:19:33.496Z,19.47
2019-06-20T05:20:10.432Z,19.50
2019-06-20T05:20:47.459Z,19.56
2019-06-20T05:21:24.064Z,19.63
2019-06-20T05:22:00.747Z,19.61
2019-06-20T05:22:38.120Z,19.66
2019-06-20T05:23:14.552Z,19.75
2019-06-20T05:23:51.857Z,19.79
2019-06-20T05:24:28.482Z,19.74
2019-06-20T05:25:04.688Z,19.64
2019-06-20T05:25:41.329Z,19.56
2019-06-20T05:26:18.296Z,19.58
2019-06-20T05:26:54.739Z,19.66
2019-06-20T05:27:31.752Z,19.76
2019-06-20T05:28:08.389Z,19.69
2019-06-20T05:28:44.424Z,19.59
2019-06-20T05:29:21.041Z,19.57
2019-06-20T05:29:57.768Z,19.65
2019-06-20T05:30:34.185Z,19.69
2019-06-20T05:31:10.959Z,19.74
2019-06-20T05:31:47.674Z,19.79
2019-06-20T05:32:24.001Z,19.79
2019-06-20T05:33:00.818Z,19.73
2019-06-20T05:33:37.835Z,19.78
2019-06-20T05:34:13.857Z,19.86
2019-06-20T05:34:50.548Z,19.92
2019-06-20T05:35:27.257Z,19.73
2019-06-20T05:36:03.367Z,19.80
2019-06-20T05:36:40.041Z,19.89
2019-06-20T05:37:16.667Z,19.91
2019-06-20T05:37:53.019Z,20.01
2019-06-20T05:38:29.707Z,20.03
2019-06-20T05:39:07.545Z,20.11
2019-06-20T05:39:43.571Z,20.00
2019-06-20T05:40:20.425Z,20.04
2019-06-20T05:40:57.663Z,20.06
2019-06-20T05:41:34.343Z,20.23
2019-06-20T05:42:11.367Z,20.30
2019-06-20T05:42:48.006Z,20.29
2019-06-20T05:43:24.442Z,20.27
2019-06-20T05:44:01.106Z,20.20
2019-06-20T05:44:37.719Z,20.15
2019-06-20T05:45:14.978Z,19.95
2019-06-20T05:46:05.472Z,20.08
2019-06-20T05:46:30.327Z,20.14
2019-06-20T05:47:12.431Z,20.04
2019-06-20T05:47:45.471Z,20.12
2019-06-20T05:48:22.081Z,20.13
2019-06-20T05:48:58.512Z,20.33
2019-06-20T05:49:35.767Z,20.53
2019-06-20T05:50:13.395Z,20.45
2019-06-20T05:50:49.708Z,20.52
2019-06-20T05:51:26.453Z,20.46
2019-06-20T05:52:03.733Z,20.48
2019-06-20T05:52:39.773Z,20.48
2019-06-20T05:53:16.393Z,20.27
2019-06-20T05:53:53.747Z,20.39
2019-06-20T05:54:30.183Z,20.50
2019-06-20T05:55:07.564Z,20.66
2019-06-20T05:55:44.467Z,20.61
2019-06-20T05:56:20.852Z,20.66
2019-06-20T05:56:57.735Z,20.62
2019-06-20T05:57:34.719Z,20.60
2019-06-20T05:58:10.779Z,20.68
2019-06-20T05:58:47.876Z,20.47
2019-06-20T05:59:25.721Z,20.34
2019-06-20T06:00:01.924Z,20.15
2019-06-20T06:00:38.869Z,20.12
2019-06-20T06:01:15.598Z,20.10
2019-06-20T06:01:55.377Z,20.01
2019-06-20T06:02:30.828Z,20.11
2019-06-20T06:03:07.809Z,20.12
2019-06-20T06:03:44.264Z,20.14
2019-06-20T06:04:21.250Z,20.23
2019-06-20T06:04:58.593Z,20.20
2019-06-20T06:05:35.042Z,20.04
2019-06-20T06:06:12.528Z,20.12
2019-06-20T06:06:49.186Z,20.10
2019-06-20T06:07:25.637Z,20.02
2019-06-20T06:08:02.295Z,20.06
2019-06-20T06:08:39.144Z,20.17
2019-06-20T06:09:15.960Z,20.24
2019-06-20T06:09:52.568Z,20.38
2019-06-20T06:10:29.751Z,20.30
2019-06-20T06:11:05.949Z,20.24
2019-06-20T06:11:42.595Z,20.20
2019-06-20T06:12:19.892Z,20.48
2019-06-20T06:12:56.514Z,20.57
2019-06-20T06:13:33.202Z,20.67
2019-06-20T06:14:09.800Z,20.58
2019-06-20T06:14:45.850Z,20.49
2019-06-20T06:15:22.499Z,20.43
2019-06-20T06:16:00.259Z,20.60
2019-06-20T06:16:36.721Z,20.70
2019-06-20T06:17:13.337Z,20.42
2019-06-20T06:17:49.962Z,20.26
2019-06-20T06:18:26.084Z,20.36
2019-06-20T06:19:03.278Z,20.43
2019-06-20T06:19:40.223Z,20.39
2019-06-20T06:20:16.703Z,20.36
2019-06-20T06:20:53.330Z,20.43
2019-06-20T06:21:30.002Z,20.42
2019-06-20T06:22:06.065Z,20.62
2019-06-20T06:22:44.728Z,20.66
2019-06-20T06:23:21.190Z,20.48
2019-06-20T06:23:57.407Z,20.60
2019-06-20T06:24:34.066Z,20.73
2019-06-20T06:25:11.001Z,20.60
2019-06-20T06:25:47.432Z,20.82
2019-06-20T06:26:24.076Z,20.78
2019-06-20T06:27:00.789Z,20.90
2019-06-20T06:27:37.193Z,20.81
2019-06-20T06:28:13.846Z,20.79
2019-06-20T06:28:50.548Z,20.96
2019-06-20T06:29:26.922Z,21.03
2019-06-20T06:30:04.096Z,21.13
2019-06-20T06:30:40.735Z,21.11
2019-06-20T06:31:16.858Z,20.81
2019-06-20T06:31:53.500Z,20.89
2019-06-20T06:32:39.604Z,20.94
2019-06-20T06:33:09.793Z,20.83
2019-06-20T06:33:46.463Z,20.68
2019-06-20T06:34:23.127Z,20.65
2019-06-20T06:34:59.674Z,20.70
2019-06-20T06:35:36.638Z,20.67
2019-06-20T06:36:13.251Z,20.83
2019-06-20T06:36:49.299Z,20.86
2019-06-20T06:37:27.053Z,20.98
2019-06-20T06:38:03.809Z,20.85
2019-06-20T06:38:39.949Z,20.75
2019-06-20T06:39:16.667Z,20.96
2019-06-20T06:39:54.093Z,20.73
2019-06-20T06:40:30.271Z,20.67
2019-06-20T06:41:07.208Z,20.89
2019-06-20T06:41:44.507Z,21.02
2019-06-20T06:42:21.269Z,21.23
2019-06-20T06:42:58.045Z,21.41
2019-06-20T06:43:34.699Z,21.42
2019-06-20T06:44:10.707Z,21.15
2019-06-20T06:44:47.331Z,21.23
2019-06-20T06:45:24.129Z,21.00
2019-06-20T06:46:00.299Z,21.02
2019-06-20T06:46:44.994Z,20.95
2019-06-20T06:47:15.231Z,21.22
2019-06-20T06:47:51.222Z,21.39
2019-06-20T06:48:28.193Z,21.19
2019-06-20T06:49:05.441Z,21.24
2019-06-20T06:49:41.507Z,21.19
2019-06-20T06:50:18.162Z,21.12
2019-06-20T06:50:55.411Z,20.96
2019-06-20T06:51:31.542Z,21.07
2019-06-20T06:52:08.159Z,21.33
2019-06-20T06:52:45.436Z,21.41
2019-06-20T06:53:21.468Z,21.59
2019-06-20T06:53:58.469Z,21.72
2019-06-20T06:54:35.556Z,21.71
2019-06-20T06:55:13.215Z,21.73
2019-06-20T06:55:50.204Z,21.48
2019-06-20T06:56:27.525Z,21.36
2019-06-20T06:57:03.629Z,21.53
2019-06-20T06:57:40.223Z,21.43
2019-06-20T06:58:16.921Z,21.59
2019-06-20T06:58:52.993Z,21.54
2019-06-20T06:59:29.787Z,21.77
2019-06-20T07:00:08.822Z,21.85
2019-06-20T07:00:44.889Z,21.77
2019-06-20T07:01:22.157Z,21.72
2019-06-20T07:01:58.785Z,21.84
2019-06-20T07:02:34.838Z,21.63
2019-06-20T07:03:11.458Z,21.55
2019-06-20T07:03:48.523Z,21.77
2019-06-20T07:04:24.800Z,21.62
2019-06-20T07:05:01.701Z,21.68
2019-06-20T07:05:38.505Z,21.37
2019-06-20T07:06:14.553Z,21.43
2019-06-20T07:06:51.191Z,21.50
2019-06-20T07:07:27.845Z,21.35
2019-06-20T07:08:04.214Z,21.50
2019-06-20T07:08:41.162Z,21.53
2019-06-20T07:09:17.774Z,21.37
2019-06-20T07:09:53.803Z,21.50
2019-06-20T07:10:30.904Z,21.50
2019-06-20T07:11:07.907Z,21.48
2019-06-20T07:11:43.932Z,21.62
2019-06-20T07:12:20.546Z,21.71
2019-06-20T07:12:57.234Z,21.79
2019-06-20T07:13:33.313Z,21.86
2019-06-20T07:14:09.945Z,21.71
2019-06-20T07:14:46.570Z,21.74
2019-06-20T07:15:23.010Z,21.52
2019-06-20T07:15:59.740Z,21.46
2019-06-20T07:16:36.340Z,21.42
2019-06-20T07:17:12.973Z,21.47
2019-06-20T07:17:49.933Z,21.55
2019-06-20T07:18:26.967Z,21.55
2019-06-20T07:19:03.139Z,21.46
2019-06-20T07:19:40.018Z,21.35
2019-06-20T07:20:17.053Z,21.27
2019-06-20T07:20:53.118Z,21.34
2019-06-20T07:21:29.803Z,21.26
2019-06-20T07:22:06.489Z,21.28
2019-06-20T07:22:42.819Z,21.28
2019-06-20T07:23:19.440Z,21.12
2019-06-20T07:23:56.144Z,21.17
2019-06-20T07:24:32.912Z,21.37
2019-06-20T07:25:09.965Z,21.46
2019-06-20T07:25:46.851Z,21.28
2019-06-20T07:26:23.209Z,21.33
2019-06-20T07:26:59.907Z,21.26
2019-06-20T07:27:36.805Z,21.41
2019-06-20T07:28:12.858Z,21.38
2019-06-20T07:28:51.564Z,21.33
2019-06-20T07:29:28.294Z,21.19
2019-06-20T07:30:05.648Z,21.42
2019-06-20T07:30:42.272Z,21.57
2019-06-20T07:31:19.282Z,21.58
2019-06-20T07:31:55.476Z,21.76
2019-06-20T07:32:32.129Z,21.91
2019-06-20T07:33:08.765Z,21.84
2019-06-20T07:33:45.105Z,21.72
2019-06-20T07:34:21.838Z,21.71
2019-06-20T07:34:58.680Z,21.62
2019-06-20T07:35:35.417Z,21.61
2019-06-20T07:36:12.092Z,21.56
2019-06-20T07:36:48.708Z,21.60
2019-06-20T07:37:25.070Z,21.69
2019-06-20T07:38:02.151Z,21.64
2019-06-20T07:38:38.842Z,21.54
2019-06-20T07:39:14.876Z,21.49
2019-06-20T07:39:51.882Z,21.54
2019-06-20T07:40:28.756Z,21.55
2019-06-20T07:41:05.230Z,21.57
2019-06-20T07:41:41.871Z,21.63
2019-06-20T07:42:18.639Z,21.50
2019-06-20T07:42:54.979Z,21.58
2019-06-20T07:43:31.633Z,21.70
2019-06-20T07:44:08.638Z,21.77
2019-06-20T07:44:44.968Z,21.82
2019-06-20T07:45:27.614Z,21.96
2019-06-20T07:46:04.988Z,21.94
2019-06-20T07:46:41.039Z,22.01
2019-06-20T07:47:18.242Z,22.08
2019-06-20T07:47:54.986Z,22.01
2019-06-20T07:48:31.129Z,22.00
2019-06-20T07:49:08.548Z,21.76
2019-06-20T07:49:45.200Z,21.54
2019-06-20T07:50:21.777Z,21.52
2019-06-20T07:50:58.740Z,21.54
2019-06-20T07:51:35.400Z,21.62
2019-06-20T07:52:11.989Z,21.35
2019-06-20T07:53:01.423Z,21.42
2019-06-20T07:53:27.080Z,21.63
2019-06-20T07:54:03.595Z,21.68